sensor_id;sensor_type;location;lat;lon;timestamp;P1;durP1;ratioP1;P2;durP2;ratioP2
80679;SDS011;70043;51.982;-8.514;2023-06-14T00:01:09;29.77;;;15.93;;
80679;SDS011;70043;51.982;-8.514;2023-06-14T00:03:38;30.15;;;16.15;;
80679;SDS011;70043;51.982;-8.514;2023-06-14T00:06:06;25.85;;;14.40;;
80679;SDS011;70043;51.982;-8.514;2023-06-14T00:08:34;28.88;;;16.70;;
80679;SDS011;70043;51.982;-8.514;2023-06-14T00:11:02;29.33;;;15.48;;
80679;SDS011;70043;51.982;-8.514;2023-06-14T00:13:31;28.42;;;15.02;;
80679;SDS011;70043;51.982;-8.514;2023-06-14T00:15:59;26.65;;;14.38;;
80679;SDS011;70043;51.982;-8.514;2023-06-14T00:18:26;26.30;;;13.80;;
80679;SDS011;70043;51.982;-8.514;2023-06-14T00:20:54;21.08;;;12.00;;
80679;SDS011;70043;51.982;-8.514;2023-06-14T00:23:22;21.85;;;12.48;;
80679;SDS011;70043;51.982;-8.514;2023-06-14T00:25:50;20.52;;;11.70;;
80679;SDS011;70043;51.982;-8.514;2023-06-14T00:28:18;22.75;;;13.65;;
80679;SDS011;70043;51.982;-8.514;2023-06-14T00:30:48;26.80;;;13.98;;
80679;SDS011;70043;51.982;-8.514;2023-06-14T00:33:15;24.85;;;13.93;;
80679;SDS011;70043;51.982;-8.514;2023-06-14T00:35:43;27.70;;;15.30;;
80679;SDS011;70043;51.982;-8.514;2023-06-14T00:38:12;29.80;;;16.77;;
80679;SDS011;70043;51.982;-8.514;2023-06-14T00:40:41;16.65;;;9.85;;
80679;SDS011;70043;51.982;-8.514;2023-06-14T00:43:09;23.92;;;13.88;;
80679;SDS011;70043;51.982;-8.514;2023-06-14T00:45:37;22.63;;;13.48;;
80679;SDS011;70043;51.982;-8.514;2023-06-14T00:48:08;22.70;;;13.48;;
80679;SDS011;70043;51.982;-8.514;2023-06-14T00:50:36;20.05;;;11.55;;
80679;SDS011;70043;51.982;-8.514;2023-06-14T00:53:06;23.15;;;13.35;;
80679;SDS011;70043;51.982;-8.514;2023-06-14T00:55:34;22.17;;;12.38;;
80679;SDS011;70043;51.982;-8.514;2023-06-14T00:58:01;28.38;;;14.50;;
80679;SDS011;70043;51.982;-8.514;2023-06-14T01:00:29;21.05;;;12.60;;
80679;SDS011;70043;51.982;-8.514;2023-06-14T01:02:57;29.38;;;14.02;;
80679;SDS011;70043;51.982;-8.514;2023-06-14T01:05:26;19.10;;;10.18;;
80679;SDS011;70043;51.982;-8.514;2023-06-14T01:08:00;27.00;;;13.93;;
80679;SDS011;70043;51.982;-8.514;2023-06-14T01:10:40;27.08;;;14.80;;
80679;SDS011;70043;51.982;-8.514;2023-06-14T01:13:12;28.50;;;14.13;;
80679;SDS011;70043;51.982;-8.514;2023-06-14T01:15:45;26.92;;;14.75;;
80679;SDS011;70043;51.982;-8.514;2023-06-14T01:18:13;25.33;;;13.90;;
80679;SDS011;70043;51.982;-8.514;2023-06-14T01:20:44;23.50;;;12.85;;
80679;SDS011;70043;51.982;-8.514;2023-06-14T01:23:16;26.38;;;14.98;;
80679;SDS011;70043;51.982;-8.514;2023-06-14T01:25:44;20.38;;;11.32;;
80679;SDS011;70043;51.982;-8.514;2023-06-14T01:28:12;28.42;;;14.95;;
80679;SDS011;70043;51.982;-8.514;2023-06-14T01:30:42;29.10;;;14.68;;
80679;SDS011;70043;51.982;-8.514;2023-06-14T01:33:13;32.20;;;16.42;;
80679;SDS011;70043;51.982;-8.514;2023-06-14T01:35:43;24.05;;;14.25;;
80679;SDS011;70043;51.982;-8.514;2023-06-14T01:38:12;24.90;;;14.02;;
80679;SDS011;70043;51.982;-8.514;2023-06-14T01:40:41;23.33;;;12.93;;
80679;SDS011;70043;51.982;-8.514;2023-06-14T01:43:10;23.63;;;11.80;;
80679;SDS011;70043;51.982;-8.514;2023-06-14T01:45:39;25.50;;;13.82;;
80679;SDS011;70043;51.982;-8.514;2023-06-14T01:48:08;25.67;;;14.30;;
80679;SDS011;70043;51.982;-8.514;2023-06-14T01:50:36;22.85;;;12.73;;
80679;SDS011;70043;51.982;-8.514;2023-06-14T01:53:05;26.88;;;14.15;;
80679;SDS011;70043;51.982;-8.514;2023-06-14T01:55:34;31.83;;;15.43;;
80679;SDS011;70043;51.982;-8.514;2023-06-14T01:58:04;19.02;;;11.50;;
80679;SDS011;70043;51.982;-8.514;2023-06-14T02:00:32;25.60;;;13.05;;
80679;SDS011;70043;51.982;-8.514;2023-06-14T02:03:00;30.40;;;16.50;;
80679;SDS011;70043;51.982;-8.514;2023-06-14T02:05:29;19.98;;;10.98;;
80679;SDS011;70043;51.982;-8.514;2023-06-14T02:07:57;30.05;;;15.30;;
80679;SDS011;70043;51.982;-8.514;2023-06-14T02:10:24;30.10;;;14.85;;
80679;SDS011;70043;51.982;-8.514;2023-06-14T02:12:54;26.63;;;14.23;;
80679;SDS011;70043;51.982;-8.514;2023-06-14T02:15:23;24.80;;;12.88;;
80679;SDS011;70043;51.982;-8.514;2023-06-14T02:17:58;23.35;;;14.52;;
80679;SDS011;70043;51.982;-8.514;2023-06-14T02:20:27;26.90;;;15.20;;
80679;SDS011;70043;51.982;-8.514;2023-06-14T02:22:55;35.22;;;15.55;;
80679;SDS011;70043;51.982;-8.514;2023-06-14T02:25:24;12.38;;;7.43;;
80679;SDS011;70043;51.982;-8.514;2023-06-14T02:27:53;22.30;;;12.45;;
80679;SDS011;70043;51.982;-8.514;2023-06-14T02:30:21;27.17;;;13.23;;
80679;SDS011;70043;51.982;-8.514;2023-06-14T02:32:50;27.23;;;13.70;;
80679;SDS011;70043;51.982;-8.514;2023-06-14T02:35:18;30.20;;;16.02;;
80679;SDS011;70043;51.982;-8.514;2023-06-14T02:37:49;30.80;;;15.98;;
80679;SDS011;70043;51.982;-8.514;2023-06-14T02:40:17;28.63;;;14.90;;
80679;SDS011;70043;51.982;-8.514;2023-06-14T02:42:46;24.92;;;14.57;;
80679;SDS011;70043;51.982;-8.514;2023-06-14T02:45:14;34.10;;;17.27;;
80679;SDS011;70043;51.982;-8.514;2023-06-14T02:47:43;24.10;;;13.55;;
80679;SDS011;70043;51.982;-8.514;2023-06-14T02:50:13;28.02;;;14.63;;
80679;SDS011;70043;51.982;-8.514;2023-06-14T02:52:41;23.73;;;13.98;;
80679;SDS011;70043;51.982;-8.514;2023-06-14T02:55:09;29.55;;;16.60;;
80679;SDS011;70043;51.982;-8.514;2023-06-14T02:57:37;26.95;;;15.80;;
80679;SDS011;70043;51.982;-8.514;2023-06-14T03:00:05;32.95;;;16.65;;
80679;SDS011;70043;51.982;-8.514;2023-06-14T03:02:38;30.58;;;16.70;;
80679;SDS011;70043;51.982;-8.514;2023-06-14T03:05:09;28.98;;;16.60;;
80679;SDS011;70043;51.982;-8.514;2023-06-14T03:07:38;33.63;;;17.10;;
80679;SDS011;70043;51.982;-8.514;2023-06-14T03:10:07;31.17;;;15.60;;
80679;SDS011;70043;51.982;-8.514;2023-06-14T03:12:35;34.17;;;17.58;;
80679;SDS011;70043;51.982;-8.514;2023-06-14T03:15:03;30.73;;;16.48;;
80679;SDS011;70043;51.982;-8.514;2023-06-14T03:17:32;33.53;;;17.50;;
80679;SDS011;70043;51.982;-8.514;2023-06-14T03:20:00;30.20;;;16.10;;
80679;SDS011;70043;51.982;-8.514;2023-06-14T03:22:30;32.70;;;17.90;;
80679;SDS011;70043;51.982;-8.514;2023-06-14T03:24:59;39.65;;;19.67;;
80679;SDS011;70043;51.982;-8.514;2023-06-14T03:27:29;35.72;;;19.75;;
80679;SDS011;70043;51.982;-8.514;2023-06-14T03:29:57;37.97;;;17.83;;
80679;SDS011;70043;51.982;-8.514;2023-06-14T03:32:25;38.15;;;18.88;;
80679;SDS011;70043;51.982;-8.514;2023-06-14T03:34:53;40.72;;;19.80;;
80679;SDS011;70043;51.982;-8.514;2023-06-14T03:37:22;35.05;;;17.88;;
80679;SDS011;70043;51.982;-8.514;2023-06-14T03:39:51;39.90;;;21.27;;
80679;SDS011;70043;51.982;-8.514;2023-06-14T03:42:19;38.42;;;18.60;;
80679;SDS011;70043;51.982;-8.514;2023-06-14T03:48:04;42.08;;;20.63;;
80679;SDS011;70043;51.982;-8.514;2023-06-14T03:50:34;40.83;;;19.95;;
80679;SDS011;70043;51.982;-8.514;2023-06-14T03:53:03;36.53;;;19.95;;
80679;SDS011;70043;51.982;-8.514;2023-06-14T03:55:32;35.63;;;18.70;;
80679;SDS011;70043;51.982;-8.514;2023-06-14T03:58:00;37.78;;;19.83;;
80679;SDS011;70043;51.982;-8.514;2023-06-14T04:00:28;28.65;;;15.52;;
80679;SDS011;70043;51.982;-8.514;2023-06-14T04:02:57;33.17;;;18.30;;
80679;SDS011;70043;51.982;-8.514;2023-06-14T04:05:26;34.50;;;19.10;;
80679;SDS011;70043;51.982;-8.514;2023-06-14T04:07:54;23.60;;;14.50;;
80679;SDS011;70043;51.982;-8.514;2023-06-14T04:10:22;25.02;;;13.98;;
80679;SDS011;70043;51.982;-8.514;2023-06-14T04:12:51;22.92;;;13.20;;
80679;SDS011;70043;51.982;-8.514;2023-06-14T04:15:20;34.25;;;16.35;;
80679;SDS011;70043;51.982;-8.514;2023-06-14T04:17:48;32.63;;;17.17;;
80679;SDS011;70043;51.982;-8.514;2023-06-14T04:20:16;40.75;;;21.42;;
80679;SDS011;70043;51.982;-8.514;2023-06-14T04:22:44;29.27;;;16.30;;
80679;SDS011;70043;51.982;-8.514;2023-06-14T04:25:12;39.20;;;19.70;;
80679;SDS011;70043;51.982;-8.514;2023-06-14T04:27:40;33.75;;;18.02;;
80679;SDS011;70043;51.982;-8.514;2023-06-14T04:30:11;40.33;;;20.38;;
80679;SDS011;70043;51.982;-8.514;2023-06-14T04:32:39;23.75;;;13.48;;
80679;SDS011;70043;51.982;-8.514;2023-06-14T04:35:08;32.42;;;17.60;;
80679;SDS011;70043;51.982;-8.514;2023-06-14T04:37:36;34.42;;;18.05;;
80679;SDS011;70043;51.982;-8.514;2023-06-14T04:40:07;37.83;;;19.60;;
80679;SDS011;70043;51.982;-8.514;2023-06-14T04:42:37;36.22;;;17.42;;
80679;SDS011;70043;51.982;-8.514;2023-06-14T04:45:07;33.55;;;19.88;;
80679;SDS011;70043;51.982;-8.514;2023-06-14T04:47:37;39.47;;;18.88;;
80679;SDS011;70043;51.982;-8.514;2023-06-14T04:50:08;26.23;;;14.18;;
80679;SDS011;70043;51.982;-8.514;2023-06-14T04:52:38;28.33;;;15.05;;
80679;SDS011;70043;51.982;-8.514;2023-06-14T04:55:07;33.55;;;18.35;;
80679;SDS011;70043;51.982;-8.514;2023-06-14T04:57:35;34.70;;;18.90;;
80679;SDS011;70043;51.982;-8.514;2023-06-14T05:00:04;31.90;;;17.25;;
80679;SDS011;70043;51.982;-8.514;2023-06-14T05:02:34;25.08;;;15.05;;
80679;SDS011;70043;51.982;-8.514;2023-06-14T05:05:05;24.85;;;12.75;;
80679;SDS011;70043;51.982;-8.514;2023-06-14T05:07:35;35.53;;;18.27;;
80679;SDS011;70043;51.982;-8.514;2023-06-14T05:10:03;32.67;;;16.13;;
80679;SDS011;70043;51.982;-8.514;2023-06-14T05:12:31;29.77;;;15.75;;
80679;SDS011;70043;51.982;-8.514;2023-06-14T05:15:00;33.35;;;17.48;;
80679;SDS011;70043;51.982;-8.514;2023-06-14T05:17:30;26.95;;;14.10;;
80679;SDS011;70043;51.982;-8.514;2023-06-14T05:19:58;22.80;;;12.50;;
80679;SDS011;70043;51.982;-8.514;2023-06-14T05:22:29;33.65;;;19.08;;
80679;SDS011;70043;51.982;-8.514;2023-06-14T05:24:57;33.17;;;17.77;;
80679;SDS011;70043;51.982;-8.514;2023-06-14T05:27:25;31.73;;;17.17;;
80679;SDS011;70043;51.982;-8.514;2023-06-14T05:29:52;28.05;;;15.85;;
80679;SDS011;70043;51.982;-8.514;2023-06-14T05:32:22;30.98;;;17.70;;
80679;SDS011;70043;51.982;-8.514;2023-06-14T05:34:49;31.02;;;16.40;;
80679;SDS011;70043;51.982;-8.514;2023-06-14T05:37:17;30.33;;;17.35;;
80679;SDS011;70043;51.982;-8.514;2023-06-14T05:39:46;28.35;;;16.27;;
80679;SDS011;70043;51.982;-8.514;2023-06-14T05:42:15;31.38;;;17.20;;
80679;SDS011;70043;51.982;-8.514;2023-06-14T05:44:43;33.78;;;18.27;;
80679;SDS011;70043;51.982;-8.514;2023-06-14T05:47:13;31.45;;;17.20;;
80679;SDS011;70043;51.982;-8.514;2023-06-14T05:49:46;27.17;;;14.60;;
80679;SDS011;70043;51.982;-8.514;2023-06-14T05:52:17;29.50;;;17.27;;
80679;SDS011;70043;51.982;-8.514;2023-06-14T05:54:49;26.70;;;14.95;;
80679;SDS011;70043;51.982;-8.514;2023-06-14T05:57:18;34.35;;;18.27;;
80679;SDS011;70043;51.982;-8.514;2023-06-14T05:59:46;33.17;;;15.98;;
80679;SDS011;70043;51.982;-8.514;2023-06-14T06:02:15;30.15;;;16.85;;
80679;SDS011;70043;51.982;-8.514;2023-06-14T06:04:44;25.98;;;15.32;;
80679;SDS011;70043;51.982;-8.514;2023-06-14T06:07:12;31.98;;;15.93;;
80679;SDS011;70043;51.982;-8.514;2023-06-14T06:09:40;30.73;;;16.73;;
80679;SDS011;70043;51.982;-8.514;2023-06-14T06:12:10;23.90;;;14.98;;
80679;SDS011;70043;51.982;-8.514;2023-06-14T06:14:40;21.75;;;14.00;;
80679;SDS011;70043;51.982;-8.514;2023-06-14T06:17:10;24.13;;;15.05;;
80679;SDS011;70043;51.982;-8.514;2023-06-14T06:19:38;20.70;;;12.93;;
80679;SDS011;70043;51.982;-8.514;2023-06-14T06:22:09;24.90;;;13.68;;
80679;SDS011;70043;51.982;-8.514;2023-06-14T06:24:37;20.73;;;13.60;;
80679;SDS011;70043;51.982;-8.514;2023-06-14T06:27:07;26.35;;;15.00;;
80679;SDS011;70043;51.982;-8.514;2023-06-14T06:29:37;27.98;;;17.10;;
80679;SDS011;70043;51.982;-8.514;2023-06-14T06:32:07;29.95;;;17.73;;
80679;SDS011;70043;51.982;-8.514;2023-06-14T06:34:38;31.88;;;17.92;;
80679;SDS011;70043;51.982;-8.514;2023-06-14T06:37:13;30.27;;;18.02;;
80679;SDS011;70043;51.982;-8.514;2023-06-14T06:39:40;36.50;;;19.17;;
80679;SDS011;70043;51.982;-8.514;2023-06-14T06:42:11;27.67;;;17.13;;
80679;SDS011;70043;51.982;-8.514;2023-06-14T06:44:44;28.02;;;16.75;;
80679;SDS011;70043;51.982;-8.514;2023-06-14T06:47:13;26.92;;;13.85;;
80679;SDS011;70043;51.982;-8.514;2023-06-14T06:49:41;28.52;;;16.73;;
80679;SDS011;70043;51.982;-8.514;2023-06-14T06:52:09;28.38;;;17.77;;
80679;SDS011;70043;51.982;-8.514;2023-06-14T06:54:37;27.10;;;15.13;;
80679;SDS011;70043;51.982;-8.514;2023-06-14T06:57:06;26.83;;;17.15;;
80679;SDS011;70043;51.982;-8.514;2023-06-14T06:59:37;33.65;;;16.23;;
80679;SDS011;70043;51.982;-8.514;2023-06-14T07:02:05;27.15;;;15.27;;
80679;SDS011;70043;51.982;-8.514;2023-06-14T07:04:34;23.30;;;14.20;;
80679;SDS011;70043;51.982;-8.514;2023-06-14T07:07:02;27.02;;;16.83;;
80679;SDS011;70043;51.982;-8.514;2023-06-14T07:09:30;26.40;;;15.57;;
80679;SDS011;70043;51.982;-8.514;2023-06-14T07:11:58;26.50;;;15.80;;
80679;SDS011;70043;51.982;-8.514;2023-06-14T07:14:26;26.63;;;16.45;;
80679;SDS011;70043;51.982;-8.514;2023-06-14T07:16:56;29.83;;;16.25;;
80679;SDS011;70043;51.982;-8.514;2023-06-14T07:19:24;24.40;;;14.00;;
80679;SDS011;70043;51.982;-8.514;2023-06-14T07:21:52;22.15;;;13.73;;
80679;SDS011;70043;51.982;-8.514;2023-06-14T07:24:20;22.55;;;12.77;;
80679;SDS011;70043;51.982;-8.514;2023-06-14T07:26:48;19.05;;;11.90;;
80679;SDS011;70043;51.982;-8.514;2023-06-14T07:29:16;18.20;;;11.85;;
80679;SDS011;70043;51.982;-8.514;2023-06-14T07:31:47;21.48;;;11.27;;
80679;SDS011;70043;51.982;-8.514;2023-06-14T07:34:16;18.17;;;11.27;;
80679;SDS011;70043;51.982;-8.514;2023-06-14T07:36:45;17.40;;;10.10;;
80679;SDS011;70043;51.982;-8.514;2023-06-14T07:39:13;18.30;;;11.15;;
80679;SDS011;70043;51.982;-8.514;2023-06-14T07:41:41;22.95;;;13.13;;
80679;SDS011;70043;51.982;-8.514;2023-06-14T07:44:08;23.08;;;12.80;;
80679;SDS011;70043;51.982;-8.514;2023-06-14T07:46:38;28.20;;;13.40;;
80679;SDS011;70043;51.982;-8.514;2023-06-14T07:49:06;21.05;;;12.95;;
80679;SDS011;70043;51.982;-8.514;2023-06-14T07:51:35;22.08;;;13.40;;
80679;SDS011;70043;51.982;-8.514;2023-06-14T07:54:03;25.40;;;15.70;;
80679;SDS011;70043;51.982;-8.514;2023-06-14T07:56:34;21.23;;;12.43;;
80679;SDS011;70043;51.982;-8.514;2023-06-14T07:59:07;21.35;;;12.48;;
80679;SDS011;70043;51.982;-8.514;2023-06-14T08:01:40;21.33;;;13.63;;
80679;SDS011;70043;51.982;-8.514;2023-06-14T08:04:12;21.73;;;12.27;;
80679;SDS011;70043;51.982;-8.514;2023-06-14T08:06:41;20.92;;;12.35;;
80679;SDS011;70043;51.982;-8.514;2023-06-14T08:09:10;19.10;;;11.70;;
80679;SDS011;70043;51.982;-8.514;2023-06-14T08:11:38;14.73;;;10.52;;
80679;SDS011;70043;51.982;-8.514;2023-06-14T08:14:06;15.98;;;10.75;;
80679;SDS011;70043;51.982;-8.514;2023-06-14T08:16:34;15.18;;;9.75;;
80679;SDS011;70043;51.982;-8.514;2023-06-14T08:19:02;18.45;;;10.55;;
80679;SDS011;70043;51.982;-8.514;2023-06-14T08:21:31;14.93;;;9.15;;
80679;SDS011;70043;51.982;-8.514;2023-06-14T08:24:03;15.70;;;9.73;;
80679;SDS011;70043;51.982;-8.514;2023-06-14T08:26:33;14.30;;;9.95;;
80679;SDS011;70043;51.982;-8.514;2023-06-14T08:29:03;15.35;;;10.80;;
80679;SDS011;70043;51.982;-8.514;2023-06-14T08:31:36;19.08;;;10.95;;
80679;SDS011;70043;51.982;-8.514;2023-06-14T08:34:04;19.02;;;10.93;;
80679;SDS011;70043;51.982;-8.514;2023-06-14T08:36:32;18.13;;;11.75;;
80679;SDS011;70043;51.982;-8.514;2023-06-14T08:39:00;16.55;;;11.57;;
80679;SDS011;70043;51.982;-8.514;2023-06-14T08:41:29;22.38;;;12.65;;
80679;SDS011;70043;51.982;-8.514;2023-06-14T08:43:57;24.55;;;12.80;;
80679;SDS011;70043;51.982;-8.514;2023-06-14T08:46:25;20.88;;;11.90;;
80679;SDS011;70043;51.982;-8.514;2023-06-14T08:48:55;21.42;;;12.52;;
80679;SDS011;70043;51.982;-8.514;2023-06-14T08:51:23;24.00;;;13.93;;
80679;SDS011;70043;51.982;-8.514;2023-06-14T08:53:59;21.75;;;13.18;;
80679;SDS011;70043;51.982;-8.514;2023-06-14T08:56:31;22.67;;;13.93;;
80679;SDS011;70043;51.982;-8.514;2023-06-14T08:59:00;24.48;;;14.00;;
80679;SDS011;70043;51.982;-8.514;2023-06-14T09:01:30;23.10;;;13.93;;
80679;SDS011;70043;51.982;-8.514;2023-06-14T09:03:59;22.83;;;14.10;;
80679;SDS011;70043;51.982;-8.514;2023-06-14T09:06:31;24.65;;;14.85;;
80679;SDS011;70043;51.982;-8.514;2023-06-14T09:08:59;22.42;;;13.52;;
80679;SDS011;70043;51.982;-8.514;2023-06-14T09:11:32;22.65;;;13.20;;
80679;SDS011;70043;51.982;-8.514;2023-06-14T09:14:01;22.13;;;13.20;;
80679;SDS011;70043;51.982;-8.514;2023-06-14T09:16:31;20.85;;;13.23;;
80679;SDS011;70043;51.982;-8.514;2023-06-14T09:18:59;22.42;;;13.15;;
80679;SDS011;70043;51.982;-8.514;2023-06-14T09:21:29;19.05;;;11.57;;
80679;SDS011;70043;51.982;-8.514;2023-06-14T09:24:02;20.65;;;12.30;;
80679;SDS011;70043;51.982;-8.514;2023-06-14T09:26:33;22.33;;;13.60;;
80679;SDS011;70043;51.982;-8.514;2023-06-14T09:29:07;20.60;;;12.02;;
80679;SDS011;70043;51.982;-8.514;2023-06-14T09:31:35;19.17;;;12.77;;
80679;SDS011;70043;51.982;-8.514;2023-06-14T09:34:06;18.38;;;11.73;;
80679;SDS011;70043;51.982;-8.514;2023-06-14T09:36:34;20.58;;;12.27;;
80679;SDS011;70043;51.982;-8.514;2023-06-14T09:39:03;22.98;;;13.60;;
80679;SDS011;70043;51.982;-8.514;2023-06-14T09:41:31;20.83;;;12.05;;
80679;SDS011;70043;51.982;-8.514;2023-06-14T09:44:01;17.38;;;11.35;;
80679;SDS011;70043;51.982;-8.514;2023-06-14T09:46:32;19.33;;;11.93;;
80679;SDS011;70043;51.982;-8.514;2023-06-14T09:49:01;15.40;;;9.57;;
80679;SDS011;70043;51.982;-8.514;2023-06-14T09:51:30;22.58;;;10.40;;
80679;SDS011;70043;51.982;-8.514;2023-06-14T09:53:59;18.45;;;10.82;;
80679;SDS011;70043;51.982;-8.514;2023-06-14T09:56:30;19.05;;;11.05;;
80679;SDS011;70043;51.982;-8.514;2023-06-14T09:59:05;17.27;;;10.48;;
80679;SDS011;70043;51.982;-8.514;2023-06-14T10:01:33;19.85;;;11.98;;
80679;SDS011;70043;51.982;-8.514;2023-06-14T10:04:02;18.77;;;10.52;;
80679;SDS011;70043;51.982;-8.514;2023-06-14T10:06:32;18.33;;;10.85;;
80679;SDS011;70043;51.982;-8.514;2023-06-14T10:09:03;18.80;;;10.77;;
80679;SDS011;70043;51.982;-8.514;2023-06-14T10:11:32;21.98;;;11.20;;
80679;SDS011;70043;51.982;-8.514;2023-06-14T10:14:00;18.20;;;11.13;;
80679;SDS011;70043;51.982;-8.514;2023-06-14T10:16:32;19.10;;;12.27;;
80679;SDS011;70043;51.982;-8.514;2023-06-14T10:19:03;18.85;;;11.15;;
80679;SDS011;70043;51.982;-8.514;2023-06-14T10:24:04;18.23;;;10.82;;
80679;SDS011;70043;51.982;-8.514;2023-06-14T10:26:40;13.75;;;9.38;;
80679;SDS011;70043;51.982;-8.514;2023-06-14T10:29:17;14.27;;;8.30;;
80679;SDS011;70043;51.982;-8.514;2023-06-14T10:31:47;16.05;;;9.98;;
80679;SDS011;70043;51.982;-8.514;2023-06-14T10:34:22;18.05;;;10.02;;
80679;SDS011;70043;51.982;-8.514;2023-06-14T10:37:01;18.05;;;11.48;;
80679;SDS011;70043;51.982;-8.514;2023-06-14T10:39:31;17.88;;;10.38;;
80679;SDS011;70043;51.982;-8.514;2023-06-14T10:42:06;17.52;;;11.65;;
80679;SDS011;70043;51.982;-8.514;2023-06-14T10:44:38;20.52;;;10.25;;
80679;SDS011;70043;51.982;-8.514;2023-06-14T10:47:19;14.73;;;10.30;;
80679;SDS011;70043;51.982;-8.514;2023-06-14T10:49:50;19.50;;;11.82;;
80679;SDS011;70043;51.982;-8.514;2023-06-14T10:52:24;17.75;;;11.07;;
80679;SDS011;70043;51.982;-8.514;2023-06-14T10:55:04;16.52;;;10.25;;
80679;SDS011;70043;51.982;-8.514;2023-06-14T10:57:40;18.70;;;11.50;;
80679;SDS011;70043;51.982;-8.514;2023-06-14T11:00:09;21.23;;;11.00;;
80679;SDS011;70043;51.982;-8.514;2023-06-14T11:05:56;14.75;;;9.77;;
80679;SDS011;70043;51.982;-8.514;2023-06-14T11:11:31;15.82;;;8.98;;
80679;SDS011;70043;51.982;-8.514;2023-06-14T11:14:00;13.65;;;9.27;;
80679;SDS011;70043;51.982;-8.514;2023-06-14T11:16:31;15.52;;;8.35;;
80679;SDS011;70043;51.982;-8.514;2023-06-14T11:19:05;12.77;;;7.50;;
80679;SDS011;70043;51.982;-8.514;2023-06-14T11:21:39;12.95;;;7.82;;
80679;SDS011;70043;51.982;-8.514;2023-06-14T11:24:09;13.88;;;8.70;;
80679;SDS011;70043;51.982;-8.514;2023-06-14T11:26:38;13.75;;;8.82;;
80679;SDS011;70043;51.982;-8.514;2023-06-14T11:29:07;13.18;;;8.85;;
80679;SDS011;70043;51.982;-8.514;2023-06-14T11:31:35;13.23;;;8.68;;
80679;SDS011;70043;51.982;-8.514;2023-06-14T11:34:03;13.57;;;9.35;;
80679;SDS011;70043;51.982;-8.514;2023-06-14T11:36:33;12.80;;;8.35;;
80679;SDS011;70043;51.982;-8.514;2023-06-14T11:39:11;12.88;;;8.45;;
80679;SDS011;70043;51.982;-8.514;2023-06-14T11:41:43;13.02;;;9.23;;
80679;SDS011;70043;51.982;-8.514;2023-06-14T11:44:14;16.92;;;9.05;;
80679;SDS011;70043;51.982;-8.514;2023-06-14T11:46:42;12.23;;;8.77;;
80679;SDS011;70043;51.982;-8.514;2023-06-14T11:49:24;14.73;;;8.75;;
80679;SDS011;70043;51.982;-8.514;2023-06-14T11:51:54;18.00;;;10.18;;
80679;SDS011;70043;51.982;-8.514;2023-06-14T11:54:23;12.98;;;8.52;;
80679;SDS011;70043;51.982;-8.514;2023-06-14T11:56:55;12.43;;;7.65;;
80679;SDS011;70043;51.982;-8.514;2023-06-14T11:59:23;15.07;;;8.88;;
80679;SDS011;70043;51.982;-8.514;2023-06-14T12:01:53;10.85;;;8.30;;
80679;SDS011;70043;51.982;-8.514;2023-06-14T12:04:26;14.73;;;7.03;;
80679;SDS011;70043;51.982;-8.514;2023-06-14T12:07:02;11.52;;;7.32;;
80679;SDS011;70043;51.982;-8.514;2023-06-14T12:09:40;9.77;;;6.45;;
80679;SDS011;70043;51.982;-8.514;2023-06-14T12:12:09;12.00;;;6.82;;
80679;SDS011;70043;51.982;-8.514;2023-06-14T12:14:41;10.55;;;6.97;;
80679;SDS011;70043;51.982;-8.514;2023-06-14T12:17:21;14.43;;;7.72;;
80679;SDS011;70043;51.982;-8.514;2023-06-14T12:19:49;10.02;;;7.13;;
80679;SDS011;70043;51.982;-8.514;2023-06-14T12:22:21;11.73;;;6.78;;
80679;SDS011;70043;51.982;-8.514;2023-06-14T12:24:49;10.30;;;5.65;;
80679;SDS011;70043;51.982;-8.514;2023-06-14T12:27:18;11.30;;;6.13;;
80679;SDS011;70043;51.982;-8.514;2023-06-14T12:30:00;10.07;;;5.63;;
80679;SDS011;70043;51.982;-8.514;2023-06-14T12:32:30;11.20;;;6.20;;
80679;SDS011;70043;51.982;-8.514;2023-06-14T12:35:01;10.98;;;6.22;;
80679;SDS011;70043;51.982;-8.514;2023-06-14T12:37:33;12.07;;;7.43;;
80679;SDS011;70043;51.982;-8.514;2023-06-14T12:40:02;10.23;;;7.25;;
80679;SDS011;70043;51.982;-8.514;2023-06-14T12:42:32;12.63;;;8.88;;
80679;SDS011;70043;51.982;-8.514;2023-06-14T12:45:02;17.33;;;8.82;;
80679;SDS011;70043;51.982;-8.514;2023-06-14T12:47:36;11.20;;;6.80;;
80679;SDS011;70043;51.982;-8.514;2023-06-14T12:50:05;12.75;;;8.27;;
80679;SDS011;70043;51.982;-8.514;2023-06-14T12:52:35;16.33;;;10.38;;
80679;SDS011;70043;51.982;-8.514;2023-06-14T12:55:04;14.85;;;8.80;;
80679;SDS011;70043;51.982;-8.514;2023-06-14T12:57:33;14.52;;;9.50;;
80679;SDS011;70043;51.982;-8.514;2023-06-14T13:00:02;18.08;;;10.20;;
80679;SDS011;70043;51.982;-8.514;2023-06-14T13:02:34;19.30;;;10.27;;
80679;SDS011;70043;51.982;-8.514;2023-06-14T13:05:03;17.55;;;10.52;;
80679;SDS011;70043;51.982;-8.514;2023-06-14T13:07:32;19.98;;;10.77;;
80679;SDS011;70043;51.982;-8.514;2023-06-14T13:10:03;15.32;;;10.63;;
80679;SDS011;70043;51.982;-8.514;2023-06-14T13:12:33;14.82;;;10.00;;
80679;SDS011;70043;51.982;-8.514;2023-06-14T13:15:01;15.27;;;10.63;;
80679;SDS011;70043;51.982;-8.514;2023-06-14T13:17:29;18.27;;;10.18;;
80679;SDS011;70043;51.982;-8.514;2023-06-14T13:19:58;17.88;;;10.95;;
80679;SDS011;70043;51.982;-8.514;2023-06-14T13:22:26;14.77;;;10.40;;
80679;SDS011;70043;51.982;-8.514;2023-06-14T13:24:55;15.35;;;9.18;;
80679;SDS011;70043;51.982;-8.514;2023-06-14T13:27:23;17.65;;;10.77;;
80679;SDS011;70043;51.982;-8.514;2023-06-14T13:29:51;16.15;;;9.95;;
80679;SDS011;70043;51.982;-8.514;2023-06-14T13:32:22;15.90;;;10.20;;
80679;SDS011;70043;51.982;-8.514;2023-06-14T13:34:50;17.45;;;9.15;;
80679;SDS011;70043;51.982;-8.514;2023-06-14T13:37:24;16.33;;;10.07;;
80679;SDS011;70043;51.982;-8.514;2023-06-14T13:39:57;16.52;;;9.70;;
80679;SDS011;70043;51.982;-8.514;2023-06-14T13:42:30;13.85;;;8.63;;
80679;SDS011;70043;51.982;-8.514;2023-06-14T13:45:07;15.13;;;9.18;;
80679;SDS011;70043;51.982;-8.514;2023-06-14T13:47:36;16.92;;;9.90;;
80679;SDS011;70043;51.982;-8.514;2023-06-14T13:50:05;15.40;;;9.63;;
80679;SDS011;70043;51.982;-8.514;2023-06-14T13:52:34;13.65;;;8.93;;
80679;SDS011;70043;51.982;-8.514;2023-06-14T13:55:04;15.02;;;8.88;;
80679;SDS011;70043;51.982;-8.514;2023-06-14T13:57:35;14.10;;;9.25;;
80679;SDS011;70043;51.982;-8.514;2023-06-14T14:00:03;14.98;;;8.85;;
80679;SDS011;70043;51.982;-8.514;2023-06-14T14:02:34;15.52;;;8.60;;
80679;SDS011;70043;51.982;-8.514;2023-06-14T14:05:02;12.73;;;8.85;;
80679;SDS011;70043;51.982;-8.514;2023-06-14T14:07:33;16.35;;;9.40;;
80679;SDS011;70043;51.982;-8.514;2023-06-14T14:10:01;15.18;;;8.90;;
80679;SDS011;70043;51.982;-8.514;2023-06-14T14:12:31;13.00;;;8.60;;
80679;SDS011;70043;51.982;-8.514;2023-06-14T14:14:59;12.02;;;9.20;;
80679;SDS011;70043;51.982;-8.514;2023-06-14T14:17:27;14.90;;;9.90;;
80679;SDS011;70043;51.982;-8.514;2023-06-14T14:19:55;12.45;;;8.15;;
80679;SDS011;70043;51.982;-8.514;2023-06-14T14:22:31;15.95;;;8.75;;
80679;SDS011;70043;51.982;-8.514;2023-06-14T14:25:18;13.60;;;8.20;;
80679;SDS011;70043;51.982;-8.514;2023-06-14T14:27:47;15.63;;;10.05;;
80679;SDS011;70043;51.982;-8.514;2023-06-14T14:30:30;15.30;;;8.82;;
80679;SDS011;70043;51.982;-8.514;2023-06-14T14:33:13;14.10;;;9.77;;
80679;SDS011;70043;51.982;-8.514;2023-06-14T14:35:50;12.73;;;9.05;;
80679;SDS011;70043;51.982;-8.514;2023-06-14T14:38:26;15.70;;;10.23;;